Durand, Kansas
Current Conditions -  °F | °C
As of 10:03 AM on Saturday 20 Dec 2014 (Local Time) from KCNU Reporting Station
Scattered Clouds Scattered Clouds  
Wind Chill: 37°   Ceiling: Unl
Heat Index: 42°   Visibility: 10mi
Dew Point: 35°   Wind: 9mph
Humidity: 76%   Direction: 190°S
Pressure: 30.21"   Gusts: NA
Location:  37.893°N, 95.7469°W
Report Text: KCNU 201603Z AUTO 19008KT 10SM SCT021 06/02 A3021 RMK AO2 T00560017
Loading
Personal Weather Stations






























Interactive Weather Map New forecast layout! Learn more

10-Day Weather Forecast

Advertisements
Track Severe Weather on mobile